createdAt,value
2023-04-15T00:00:58.344Z,11.36
2023-04-15T00:03:25.515Z,11.31
2023-04-15T00:05:52.277Z,11.27
2023-04-15T00:08:19.464Z,11.23
2023-04-15T00:10:46.703Z,11.23
2023-04-15T00:13:13.419Z,11.22
2023-04-15T00:15:40.033Z,11.17
2023-04-15T00:18:08.302Z,11.14
2023-04-15T00:20:35.770Z,11.15
2023-04-15T00:23:04.067Z,11.13
2023-04-15T00:25:30.918Z,11.13
2023-04-15T00:27:57.610Z,11.07
2023-04-15T00:30:24.250Z,11.01
2023-04-15T00:32:50.894Z,11.04
2023-04-15T00:35:21.710Z,11.02
2023-04-15T00:37:49.943Z,11.03
2023-04-15T00:40:18.705Z,11.00
2023-04-15T00:42:45.647Z,11.00
2023-04-15T00:45:12.985Z,11.03
2023-04-15T00:47:42.117Z,11.02
2023-04-15T00:50:09.621Z,10.98
2023-04-15T00:52:36.187Z,10.97
2023-04-15T00:55:04.682Z,10.97
2023-04-15T00:57:31.943Z,10.89
2023-04-15T00:59:58.884Z,10.94
2023-04-15T01:02:25.584Z,10.85
2023-04-15T01:04:52.436Z,10.88
2023-04-15T01:07:19.337Z,10.82
2023-04-15T01:09:45.954Z,10.83
2023-04-15T01:12:14.216Z,10.81
2023-04-15T01:14:41.138Z,10.82
2023-04-15T01:17:08.736Z,10.81
2023-04-15T01:19:37.007Z,10.76
2023-04-15T01:22:03.929Z,10.75
2023-04-15T01:24:31.747Z,10.74
2023-04-15T01:26:58.463Z,10.74
2023-04-15T01:29:25.131Z,10.63
2023-04-15T01:31:52.970Z,10.63
2023-04-15T01:34:19.636Z,10.61
2023-04-15T01:36:46.758Z,10.57
2023-04-15T01:39:14.674Z,10.55
2023-04-15T01:41:42.351Z,10.52
2023-04-15T01:44:09.094Z,10.50
2023-04-15T01:46:35.872Z,10.51
2023-04-15T01:49:02.662Z,10.51
2023-04-15T01:51:29.325Z,10.48
2023-04-15T01:53:57.019Z,10.41
2023-04-15T01:56:26.576Z,10.46
2023-04-15T01:58:53.395Z,10.45
2023-04-15T02:01:20.244Z,10.40
2023-04-15T02:03:48.041Z,10.36
2023-04-15T02:06:15.550Z,10.33
2023-04-15T02:08:42.151Z,10.27
2023-04-15T02:11:09.228Z,10.25
2023-04-15T02:13:36.200Z,10.19
2023-04-15T02:16:03.495Z,10.19
2023-04-15T02:18:30.466Z,10.22
2023-04-15T02:20:58.504Z,10.14
2023-04-15T02:23:25.429Z,10.10
2023-04-15T02:25:53.872Z,10.09
2023-04-15T02:28:21.975Z,10.08
2023-04-15T02:30:53.341Z,10.00
2023-04-15T02:33:21.695Z,10.03
2023-04-15T02:35:48.331Z,10.00
2023-04-15T02:38:16.762Z,9.99
2023-04-15T02:40:43.547Z,9.97
2023-04-15T02:43:10.631Z,9.95
2023-04-15T02:45:37.722Z,9.94
2023-04-15T02:48:06.652Z,9.89
2023-04-15T02:50:33.481Z,9.86
2023-04-15T02:53:01.689Z,9.85
2023-04-15T02:55:29.341Z,9.84
2023-04-15T02:57:56.171Z,9.81
2023-04-15T03:00:25.229Z,9.79
2023-04-15T03:02:56.378Z,9.74
2023-04-15T03:05:26.209Z,9.66
2023-04-15T03:07:53.283Z,9.71
2023-04-15T03:10:21.355Z,9.69
2023-04-15T03:12:48.194Z,9.65
2023-04-15T03:15:20.533Z,9.63
2023-04-15T03:17:50.997Z,9.60
2023-04-15T03:20:17.778Z,9.61
2023-04-15T03:22:44.424Z,9.58
2023-04-15T03:25:11.535Z,9.57
2023-04-15T03:27:38.622Z,9.56
2023-04-15T03:30:06.547Z,9.54
2023-04-15T03:32:36.007Z,9.48
2023-04-15T03:35:02.692Z,9.48
2023-04-15T03:37:29.226Z,9.43
2023-04-15T03:39:56.005Z,9.36
2023-04-15T03:42:22.725Z,9.41
2023-04-15T03:44:49.437Z,9.38
2023-04-15T03:47:16.379Z,9.36
2023-04-15T03:49:42.905Z,9.36
2023-04-15T03:52:09.413Z,9.31
2023-04-15T03:54:36.076Z,9.31
2023-04-15T03:57:02.635Z,9.30
2023-04-15T03:59:29.176Z,9.18
2023-04-15T04:01:56.005Z,9.25
2023-04-15T04:04:22.758Z,9.20
2023-04-15T04:06:49.315Z,9.21
2023-04-15T04:09:16.198Z,9.19
2023-04-15T04:11:42.739Z,9.18
2023-04-15T04:14:09.233Z,9.12
2023-04-15T04:16:35.779Z,9.16
2023-04-15T04:19:02.826Z,9.13
2023-04-15T04:21:29.708Z,9.11
2023-04-15T04:23:56.714Z,9.06
2023-04-15T04:26:23.440Z,9.06
2023-04-15T04:28:49.963Z,9.02
2023-04-15T04:31:16.982Z,8.98
2023-04-15T04:33:43.632Z,9.00
2023-04-15T04:36:10.510Z,8.98
2023-04-15T04:38:37.012Z,8.96
2023-04-15T04:41:03.555Z,8.98
2023-04-15T04:43:30.449Z,8.95
2023-04-15T04:45:57.003Z,8.88
2023-04-15T04:48:23.556Z,8.89
2023-04-15T04:50:50.236Z,8.86
2023-04-15T04:53:18.069Z,8.86
2023-04-15T04:55:44.623Z,8.81
2023-04-15T04:58:11.628Z,8.82
2023-04-15T05:00:38.518Z,8.84
2023-04-15T05:03:05.287Z,8.78
2023-04-15T05:05:31.954Z,8.79
2023-04-15T05:07:58.713Z,8.72
2023-04-15T05:10:25.267Z,8.79
2023-04-15T05:12:52.604Z,8.78
2023-04-15T05:15:19.190Z,8.78
2023-04-15T05:17:45.784Z,8.79
2023-04-15T05:20:12.727Z,8.79
2023-04-15T05:22:39.219Z,8.78
2023-04-15T05:25:05.951Z,8.72
2023-04-15T05:27:32.490Z,8.72
2023-04-15T05:29:58.962Z,8.71
2023-04-15T05:32:25.619Z,8.72
2023-04-15T05:34:52.260Z,8.68
2023-04-15T05:37:20.849Z,8.76
2023-04-15T05:39:48.285Z,8.76
2023-04-15T05:42:14.772Z,8.73
2023-04-15T05:44:41.673Z,8.72
2023-04-15T05:47:08.704Z,8.74
2023-04-15T05:49:35.529Z,8.74
2023-04-15T05:52:02.235Z,8.73
2023-04-15T05:54:28.929Z,8.75
2023-04-15T05:56:57.462Z,8.73
2023-04-15T05:59:24.057Z,8.76
2023-04-15T06:01:52.080Z,8.76
2023-04-15T06:04:18.706Z,8.73
2023-04-15T06:06:45.211Z,8.73
2023-04-15T06:09:11.780Z,8.75
2023-04-15T06:11:38.329Z,8.76
2023-04-15T06:14:04.918Z,8.77
2023-04-15T06:16:31.456Z,8.78
2023-04-15T06:18:57.996Z,8.80
2023-04-15T06:21:24.498Z,8.76
2023-04-15T06:23:51.117Z,8.80
2023-04-15T06:26:17.658Z,8.80
2023-04-15T06:28:44.173Z,8.87
2023-04-15T06:31:10.971Z,8.85
2023-04-15T06:33:37.736Z,8.89
2023-04-15T06:36:04.246Z,8.93
2023-04-15T06:38:30.714Z,8.95
2023-04-15T06:40:57.194Z,8.98
2023-04-15T06:43:24.160Z,9.00
2023-04-15T06:45:50.981Z,9.03
2023-04-15T06:48:17.959Z,9.04
2023-04-15T06:50:44.444Z,9.12
2023-04-15T06:53:12.370Z,9.15
2023-04-15T06:55:39.069Z,9.15
2023-04-15T06:58:05.769Z,9.19
2023-04-15T07:00:33.706Z,9.20
2023-04-15T07:03:04.034Z,9.22
2023-04-15T07:05:31.046Z,9.23
2023-04-15T07:07:57.611Z,9.27
2023-04-15T07:10:25.627Z,9.33
2023-04-15T07:12:52.588Z,9.34
2023-04-15T07:15:19.542Z,9.30
2023-04-15T07:17:46.360Z,9.35
2023-04-15T07:20:13.196Z,9.43
2023-04-15T07:22:39.771Z,9.47
2023-04-15T07:25:07.357Z,9.51
2023-04-15T07:27:33.827Z,9.57
2023-04-15T07:30:00.337Z,9.61
2023-04-15T07:32:27.360Z,9.62
2023-04-15T07:34:53.975Z,9.65
2023-04-15T07:37:20.443Z,9.69
2023-04-15T07:39:47.194Z,9.73
2023-04-15T07:42:13.697Z,9.73
2023-04-15T07:44:40.428Z,9.80
2023-04-15T07:47:06.942Z,9.85
2023-04-15T07:49:33.424Z,9.89
2023-04-15T07:52:00.538Z,9.86
2023-04-15T07:54:27.416Z,9.97
2023-04-15T07:56:54.198Z,9.98
2023-04-15T07:59:21.460Z,10.01
2023-04-15T08:01:48.214Z,10.03
2023-04-15T08:04:14.957Z,10.08
2023-04-15T08:06:41.589Z,10.14
2023-04-15T08:09:08.279Z,10.18
2023-04-15T08:11:34.895Z,10.23
2023-04-15T08:14:01.781Z,10.24
2023-04-15T08:16:28.565Z,10.29
2023-04-15T08:18:56.785Z,10.34
2023-04-15T08:21:24.061Z,10.37
2023-04-15T08:23:52.464Z,10.42
2023-04-15T08:26:20.836Z,10.47
2023-04-15T08:28:47.804Z,10.55
2023-04-15T08:31:15.457Z,10.62
2023-04-15T08:33:42.528Z,10.68
2023-04-15T08:36:09.397Z,10.74
2023-04-15T08:38:36.407Z,10.80
2023-04-15T08:41:07.202Z,10.82
2023-04-15T08:43:35.832Z,10.90
2023-04-15T08:46:04.232Z,10.95
2023-04-15T08:48:33.337Z,11.03
2023-04-15T08:51:00.773Z,11.01
2023-04-15T08:53:29.653Z,11.03
2023-04-15T08:55:57.781Z,11.07
2023-04-15T08:58:25.407Z,11.13
2023-04-15T09:00:52.232Z,11.18
2023-04-15T09:03:19.250Z,11.18
2023-04-15T09:05:46.979Z,11.26
2023-04-15T09:08:13.690Z,11.28
2023-04-15T09:10:40.259Z,11.30
2023-04-15T09:13:06.855Z,11.36
2023-04-15T09:15:33.732Z,11.43
2023-04-15T09:18:00.368Z,11.42
2023-04-15T09:20:27.289Z,11.41
2023-04-15T09:22:54.038Z,11.44
2023-04-15T09:25:23.322Z,11.46
2023-04-15T09:27:54.148Z,11.44
2023-04-15T09:30:21.178Z,11.47
2023-04-15T09:32:59.246Z,11.50
2023-04-15T09:35:27.605Z,11.48
2023-04-15T09:38:03.076Z,11.50
2023-04-15T09:40:37.428Z,11.51
2023-04-15T09:43:05.249Z,11.59
2023-04-15T09:45:33.539Z,11.57
2023-04-15T09:48:14.920Z,11.63
2023-04-15T09:50:42.683Z,11.71
2023-04-15T09:53:15.644Z,11.75
2023-04-15T09:55:58.471Z,11.82
2023-04-15T09:58:31.712Z,11.88
2023-04-15T10:00:59.669Z,11.93
2023-04-15T10:03:28.267Z,11.98
2023-04-15T10:06:00.596Z,12.02
2023-04-15T10:08:29.357Z,12.02
2023-04-15T10:10:56.750Z,12.00
2023-04-15T10:13:25.005Z,12.05
2023-04-15T10:15:58.111Z,12.03
2023-04-15T10:18:26.970Z,12.02
2023-04-15T10:20:54.388Z,12.04
2023-04-15T10:23:22.550Z,12.00
2023-04-15T10:25:51.187Z,12.10
2023-04-15T10:28:17.699Z,12.14
2023-04-15T10:30:44.586Z,12.20
2023-04-15T10:33:11.343Z,12.28
2023-04-15T10:35:39.207Z,12.31
2023-04-15T10:38:35.098Z,12.48
2023-04-15T10:41:22.341Z,12.59
2023-04-15T10:43:54.510Z,12.64
2023-04-15T10:46:41.342Z,12.74
2023-04-15T10:49:13.081Z,12.64
2023-04-15T10:51:44.263Z,12.86
2023-04-15T10:54:14.601Z,12.77
2023-04-15T10:56:43.734Z,12.81
2023-04-15T10:59:10.468Z,12.78
2023-04-15T11:01:53.656Z,12.86
2023-04-15T11:04:57.438Z,12.90
2023-04-15T11:07:38.425Z,12.84
2023-04-15T11:10:31.192Z,12.94
2023-04-15T11:12:59.472Z,12.93
2023-04-15T11:15:40.982Z,13.03
2023-04-15T11:18:14.280Z,13.03
2023-04-15T11:20:44.994Z,13.05
2023-04-15T11:23:15.095Z,13.14
2023-04-15T11:25:43.076Z,13.17
2023-04-15T11:28:10.925Z,13.23
2023-04-15T11:30:38.820Z,13.28
2023-04-15T11:33:07.019Z,13.30
2023-04-15T11:35:34.471Z,13.38
2023-04-15T11:38:19.138Z,13.47
2023-04-15T11:40:47.235Z,13.40
2023-04-15T11:43:21.126Z,13.39
2023-04-15T11:45:53.874Z,13.41
2023-04-15T11:48:22.989Z,13.39
2023-04-15T11:50:59.452Z,13.57
2023-04-15T11:53:42.519Z,13.64
2023-04-15T11:56:20.979Z,13.73
2023-04-15T11:58:49.812Z,13.71
2023-04-15T12:01:16.361Z,13.73
2023-04-15T12:03:45.897Z,13.73
2023-04-15T12:06:25.581Z,13.75
2023-04-15T12:09:07.310Z,13.72
2023-04-15T12:11:47.412Z,13.68
2023-04-15T12:14:42.337Z,13.75
2023-04-15T12:17:10.635Z,13.75
2023-04-15T12:19:40.012Z,13.88
2023-04-15T12:22:10.145Z,13.95
2023-04-15T12:24:38.405Z,13.97
2023-04-15T12:27:10.620Z,13.96
2023-04-15T12:29:39.039Z,13.97
2023-04-15T12:32:07.646Z,13.96
2023-04-15T12:34:36.343Z,13.90
2023-04-15T12:37:04.708Z,13.91
2023-04-15T12:39:36.841Z,14.03
2023-04-15T12:42:04.307Z,14.12
2023-04-15T12:44:31.023Z,14.23
2023-04-15T12:46:57.999Z,14.28
2023-04-15T12:49:25.508Z,14.26
2023-04-15T12:51:57.435Z,14.25
2023-04-15T12:54:23.994Z,14.27
2023-04-15T12:56:51.266Z,14.25
2023-04-15T12:59:18.735Z,14.25
2023-04-15T13:01:47.221Z,14.26
2023-04-15T13:04:14.571Z,14.28
2023-04-15T13:06:41.401Z,14.37
2023-04-15T13:09:07.902Z,14.33
2023-04-15T13:11:34.948Z,14.30
2023-04-15T13:14:05.677Z,14.23
2023-04-15T13:16:33.862Z,14.27
2023-04-15T13:19:01.452Z,14.18
2023-04-15T13:21:28.417Z,14.16
2023-04-15T13:23:55.688Z,14.16
2023-04-15T13:26:22.338Z,14.19
2023-04-15T13:28:48.931Z,14.15
2023-04-15T13:31:15.739Z,14.09
2023-04-15T13:33:42.245Z,14.21
2023-04-15T13:36:09.145Z,14.39
2023-04-15T13:38:35.696Z,14.41
2023-04-15T13:41:02.271Z,14.32
2023-04-15T13:43:28.830Z,14.21
2023-04-15T13:45:56.561Z,14.32
2023-04-15T13:48:23.224Z,14.42
2023-04-15T13:50:50.243Z,14.44
2023-04-15T13:53:16.757Z,14.50
2023-04-15T13:55:43.251Z,14.57
2023-04-15T13:58:10.240Z,14.64
2023-04-15T14:00:37.081Z,14.72
2023-04-15T14:03:04.538Z,14.77
2023-04-15T14:05:31.135Z,14.82
2023-04-15T14:07:59.097Z,14.67
2023-04-15T14:10:25.723Z,14.63
2023-04-15T14:12:52.278Z,14.67
2023-04-15T14:15:18.969Z,14.63
2023-04-15T14:17:45.695Z,14.54
2023-04-15T14:20:13.206Z,14.55
2023-04-15T14:22:40.897Z,14.60
2023-04-15T14:25:07.736Z,14.49
2023-04-15T14:27:34.387Z,14.47
2023-04-15T14:30:00.959Z,14.43
2023-04-15T14:32:27.836Z,14.37
2023-04-15T14:34:54.369Z,14.42
2023-04-15T14:37:21.061Z,14.40
2023-04-15T14:39:47.631Z,14.45
2023-04-15T14:42:14.218Z,14.57
2023-04-15T14:44:40.732Z,14.57
2023-04-15T14:47:07.442Z,14.47
2023-04-15T14:49:33.924Z,14.37
2023-04-15T14:52:00.642Z,14.33
2023-04-15T14:54:27.202Z,14.34
2023-04-15T14:56:53.739Z,14.40
2023-04-15T14:59:20.410Z,14.50
2023-04-15T15:01:47.042Z,14.48
2023-04-15T15:04:13.768Z,14.45
2023-04-15T15:06:42.455Z,14.41
2023-04-15T15:09:09.174Z,14.47
2023-04-15T15:11:35.815Z,14.63
2023-04-15T15:14:02.426Z,14.59
2023-04-15T15:16:29.280Z,14.55
2023-04-15T15:18:56.051Z,14.51
2023-04-15T15:21:22.779Z,14.59
2023-04-15T15:23:49.388Z,14.59
2023-04-15T15:26:15.921Z,14.54
2023-04-15T15:28:42.446Z,14.50
2023-04-15T15:31:09.040Z,14.37
2023-04-15T15:33:35.713Z,14.18
2023-04-15T15:36:03.502Z,14.17
2023-04-15T15:38:30.051Z,14.02
2023-04-15T15:40:56.624Z,13.96
2023-04-15T15:43:23.227Z,13.91
2023-04-15T15:45:51.725Z,13.82
2023-04-15T15:48:18.615Z,13.72
2023-04-15T15:50:45.766Z,13.64
2023-04-15T15:53:17.757Z,13.65
2023-04-15T15:55:44.308Z,13.65
2023-04-15T15:58:11.305Z,13.63
2023-04-15T16:00:37.827Z,13.64
2023-04-15T16:03:07.213Z,13.64
2023-04-15T16:05:34.890Z,13.72
2023-04-15T16:08:01.834Z,13.63
2023-04-15T16:10:28.772Z,13.59
2023-04-15T16:12:55.663Z,13.53
2023-04-15T16:15:23.906Z,13.48
2023-04-15T16:17:50.950Z,13.44
2023-04-15T16:20:17.764Z,13.39
2023-04-15T16:22:44.317Z,13.34
2023-04-15T16:25:10.915Z,13.25
2023-04-15T16:27:50.281Z,13.20
2023-04-15T16:30:24.204Z,13.13
2023-04-15T16:32:51.550Z,13.12
2023-04-15T16:35:18.388Z,13.06
2023-04-15T16:37:44.936Z,13.03
2023-04-15T16:40:12.058Z,12.92
2023-04-15T16:42:38.731Z,12.86
2023-04-15T16:45:05.714Z,12.79
2023-04-15T16:47:32.290Z,12.76
2023-04-15T16:49:58.870Z,12.68
2023-04-15T16:52:25.690Z,12.66
2023-04-15T16:54:52.332Z,12.57
2023-04-15T16:57:18.811Z,12.54
2023-04-15T16:59:45.346Z,12.48
2023-04-15T17:02:13.683Z,12.51
2023-04-15T17:04:41.507Z,12.46
2023-04-15T17:07:10.885Z,12.43
2023-04-15T17:09:39.855Z,12.43
2023-04-15T17:12:07.404Z,12.37
2023-04-15T17:14:34.998Z,12.43
2023-04-15T17:17:01.898Z,12.36
2023-04-15T17:19:28.477Z,12.33
2023-04-15T17:21:55.246Z,12.35
2023-04-15T17:24:21.959Z,12.34
2023-04-15T17:26:48.715Z,12.31
2023-04-15T17:29:15.346Z,12.20
2023-04-15T17:31:42.123Z,12.26
2023-04-15T17:34:10.056Z,12.21
2023-04-15T17:36:37.984Z,12.09
2023-04-15T17:39:04.830Z,12.14
2023-04-15T17:41:31.505Z,12.04
2023-04-15T17:43:58.032Z,12.05
2023-04-15T17:46:24.678Z,12.04
2023-04-15T17:48:51.181Z,12.02
2023-04-15T17:51:17.837Z,11.99
2023-04-15T17:53:44.303Z,12.05
2023-04-15T17:56:11.026Z,11.99
2023-04-15T17:58:39.184Z,11.99
2023-04-15T18:01:06.288Z,11.95
2023-04-15T18:03:32.987Z,11.88
2023-04-15T18:06:01.252Z,11.91
2023-04-15T18:08:28.956Z,11.87
2023-04-15T18:10:56.319Z,12.04
2023-04-15T18:13:22.923Z,11.89
2023-04-15T18:15:51.190Z,11.93
2023-04-15T18:18:17.706Z,11.90
2023-04-15T18:20:44.336Z,11.89
2023-04-15T18:23:10.965Z,11.86
2023-04-15T18:25:38.299Z,11.81
2023-04-15T18:28:05.548Z,11.80
2023-04-15T18:30:32.098Z,11.83
2023-04-15T18:32:58.692Z,11.80
2023-04-15T18:35:25.255Z,11.76
2023-04-15T18:37:52.872Z,11.70
2023-04-15T18:40:19.415Z,11.66
2023-04-15T18:42:46.016Z,11.74
2023-04-15T18:45:12.656Z,11.62
2023-04-15T18:47:39.452Z,11.62
2023-04-15T18:50:07.245Z,11.54
2023-04-15T18:52:34.189Z,11.66
2023-04-15T18:55:03.001Z,11.70
2023-04-15T18:57:34.960Z,11.63
2023-04-15T19:00:04.591Z,11.67
2023-04-15T19:02:31.227Z,11.66
2023-04-15T19:04:57.896Z,11.68
2023-04-15T19:07:24.884Z,11.61
2023-04-15T19:09:51.484Z,11.59
2023-04-15T19:12:18.037Z,11.59
2023-04-15T19:14:44.593Z,11.58
2023-04-15T19:17:11.242Z,11.51
2023-04-15T19:19:38.468Z,11.45
2023-04-15T19:22:05.698Z,11.52
2023-04-15T19:24:33.216Z,11.55
2023-04-15T19:26:59.821Z,11.50
2023-04-15T19:29:26.441Z,11.47
2023-04-15T19:31:53.018Z,11.41
2023-04-15T19:34:19.607Z,11.43
2023-04-15T19:36:46.189Z,11.42
2023-04-15T19:39:13.488Z,11.36
2023-04-15T19:41:40.104Z,11.31
2023-04-15T19:44:06.740Z,11.34
2023-04-15T19:46:33.434Z,11.28
2023-04-15T19:49:00.925Z,11.32
2023-04-15T19:51:28.371Z,11.24
2023-04-15T19:53:56.716Z,11.17
2023-04-15T19:56:24.066Z,11.17
2023-04-15T19:58:52.959Z,11.28
2023-04-15T20:01:20.260Z,11.31
2023-04-15T20:03:47.230Z,11.24
2023-04-15T20:06:15.169Z,11.31
2023-04-15T20:08:41.726Z,11.22
2023-04-15T20:11:09.654Z,11.33
2023-04-15T20:13:36.661Z,11.26
2023-04-15T20:16:03.469Z,11.25
2023-04-15T20:18:30.081Z,11.22
2023-04-15T20:20:56.607Z,11.22
2023-04-15T20:23:23.232Z,11.25
2023-04-15T20:25:49.721Z,11.28
2023-04-15T20:28:18.038Z,11.25
2023-04-15T20:30:45.351Z,11.23
2023-04-15T20:33:12.062Z,11.25
2023-04-15T20:35:38.926Z,11.18
2023-04-15T20:38:05.714Z,11.13
2023-04-15T20:40:34.954Z,11.14
2023-04-15T20:43:01.505Z,11.07
2023-04-15T20:45:28.000Z,10.91
2023-04-15T20:47:55.964Z,10.87
2023-04-15T20:50:22.485Z,10.94
2023-04-15T20:52:48.978Z,10.90
2023-04-15T20:55:15.660Z,10.92
2023-04-15T20:57:42.177Z,10.86
2023-04-15T21:00:11.903Z,10.74
2023-04-15T21:02:38.580Z,10.76
2023-04-15T21:05:05.884Z,10.78
2023-04-15T21:07:32.697Z,10.78
2023-04-15T21:09:59.506Z,10.81
2023-04-15T21:12:26.126Z,10.81
2023-04-15T21:14:52.618Z,10.76
2023-04-15T21:17:19.248Z,10.79
2023-04-15T21:19:45.870Z,10.68
2023-04-15T21:22:12.431Z,10.58
2023-04-15T21:24:39.013Z,10.50
2023-04-15T21:27:05.836Z,10.55
2023-04-15T21:29:32.324Z,10.46
2023-04-15T21:31:58.820Z,10.41
2023-04-15T21:34:25.401Z,10.35
2023-04-15T21:36:51.948Z,10.35
2023-04-15T21:39:18.573Z,10.38
2023-04-15T21:41:45.162Z,10.38
2023-04-15T21:44:14.449Z,10.43
2023-04-15T21:46:41.516Z,10.45
2023-04-15T21:49:12.305Z,10.45
2023-04-15T21:51:38.896Z,10.40
2023-04-15T21:54:05.569Z,10.40
2023-04-15T21:56:32.709Z,10.32
2023-04-15T21:58:59.414Z,10.30
2023-04-15T22:01:26.507Z,10.29
2023-04-15T22:03:53.346Z,10.28
2023-04-15T22:06:20.407Z,10.23
2023-04-15T22:08:56.273Z,10.16
2023-04-15T22:11:28.438Z,10.17
2023-04-15T22:13:55.555Z,10.13
2023-04-15T22:16:22.246Z,10.05
2023-04-15T22:18:48.963Z,10.10
2023-04-15T22:21:15.548Z,9.95
2023-04-15T22:23:45.734Z,9.95
2023-04-15T22:26:12.307Z,10.03
2023-04-15T22:28:38.878Z,10.05
2023-04-15T22:31:05.479Z,10.01
2023-04-15T22:33:32.037Z,10.09
2023-04-15T22:35:58.591Z,10.10
2023-04-15T22:38:25.322Z,10.03
2023-04-15T22:40:53.875Z,9.94
2023-04-15T22:43:20.450Z,10.02
2023-04-15T22:45:51.083Z,10.06
2023-04-15T22:48:18.589Z,10.03
2023-04-15T22:50:45.679Z,9.95
2023-04-15T22:53:12.770Z,9.96
2023-04-15T22:55:39.328Z,9.98
2023-04-15T22:58:05.861Z,9.96
2023-04-15T23:00:32.379Z,9.94
2023-04-15T23:02:58.990Z,9.98
2023-04-15T23:05:25.755Z,9.93
2023-04-15T23:07:52.366Z,9.84
2023-04-15T23:10:18.892Z,9.84
2023-04-15T23:12:45.472Z,9.78
2023-04-15T23:15:11.951Z,9.78
2023-04-15T23:17:38.675Z,9.72
2023-04-15T23:20:05.721Z,9.67
2023-04-15T23:22:32.270Z,9.65
2023-04-15T23:24:58.760Z,9.65
2023-04-15T23:27:25.337Z,9.68
2023-04-15T23:29:51.827Z,9.66
2023-04-15T23:32:18.408Z,9.66
2023-04-15T23:34:44.916Z,9.57
2023-04-15T23:37:11.394Z,9.54
2023-04-15T23:39:37.869Z,9.59
2023-04-15T23:42:04.476Z,9.52
2023-04-15T23:44:30.955Z,9.55
2023-04-15T23:46:57.493Z,9.56
2023-04-15T23:49:24.066Z,9.64
2023-04-15T23:51:50.947Z,9.64
2023-04-15T23:54:17.453Z,9.62
2023-04-15T23:56:43.988Z,9.69
2023-04-15T23:59:10.738Z,9.64
